sensor_id;sensor_type;location;lat;lon;timestamp;temperature;humidity
29255;DHT22;16277;48.890;2.306;2023-12-07T00:01:05;11.40;99.90
29255;DHT22;16277;48.890;2.306;2023-12-07T00:16:10;11.40;99.90
29255;DHT22;16277;48.890;2.306;2023-12-07T00:31:14;11.20;99.90
29255;DHT22;16277;48.890;2.306;2023-12-07T00:46:19;10.90;99.90
29255;DHT22;16277;48.890;2.306;2023-12-07T01:01:23;11.10;99.90
29255;DHT22;16277;48.890;2.306;2023-12-07T01:16:28;11.00;99.90
29255;DHT22;16277;48.890;2.306;2023-12-07T01:31:32;10.80;99.90
29255;DHT22;16277;48.890;2.306;2023-12-07T01:46:37;10.90;99.90
29255;DHT22;16277;48.890;2.306;2023-12-07T02:01:42;11.10;99.90
29255;DHT22;16277;48.890;2.306;2023-12-07T02:16:50;11.20;99.90
29255;DHT22;16277;48.890;2.306;2023-12-07T02:31:55;10.80;99.90
29255;DHT22;16277;48.890;2.306;2023-12-07T02:47:00;11.10;99.90
29255;DHT22;16277;48.890;2.306;2023-12-07T03:02:04;11.10;99.90
29255;DHT22;16277;48.890;2.306;2023-12-07T03:17:09;10.80;99.90
29255;DHT22;16277;48.890;2.306;2023-12-07T03:48:21;10.30;99.90
29255;DHT22;16277;48.890;2.306;2023-12-07T04:03:32;10.20;99.90
29255;DHT22;16277;48.890;2.306;2023-12-07T04:18:38;10.60;99.90
29255;DHT22;16277;48.890;2.306;2023-12-07T04:33:55;10.50;99.90
29255;DHT22;16277;48.890;2.306;2023-12-07T04:49:26;10.40;99.90
29255;DHT22;16277;48.890;2.306;2023-12-07T05:04:33;10.70;99.90
29255;DHT22;16277;48.890;2.306;2023-12-07T05:19:38;10.60;99.90
29255;DHT22;16277;48.890;2.306;2023-12-07T05:34:47;10.30;99.90
29255;DHT22;16277;48.890;2.306;2023-12-07T05:49:56;10.50;99.90
29255;DHT22;16277;48.890;2.306;2023-12-07T06:05:07;10.50;99.90
29255;DHT22;16277;48.890;2.306;2023-12-07T06:20:12;10.90;99.90
29255;DHT22;16277;48.890;2.306;2023-12-07T06:35:21;10.70;99.90
29255;DHT22;16277;48.890;2.306;2023-12-07T06:50:26;10.70;99.90
29255;DHT22;16277;48.890;2.306;2023-12-07T07:05:30;10.60;99.90
29255;DHT22;16277;48.890;2.306;2023-12-07T07:20:36;10.60;99.90
29255;DHT22;16277;48.890;2.306;2023-12-07T07:36:05;10.50;99.90
29255;DHT22;16277;48.890;2.306;2023-12-07T07:51:13;10.70;99.90
29255;DHT22;16277;48.890;2.306;2023-12-07T08:06:18;10.60;99.90
29255;DHT22;16277;48.890;2.306;2023-12-07T08:21:23;10.40;99.90
29255;DHT22;16277;48.890;2.306;2023-12-07T08:36:33;10.40;99.90
29255;DHT22;16277;48.890;2.306;2023-12-07T08:51:39;10.50;99.90
29255;DHT22;16277;48.890;2.306;2023-12-07T09:07:05;10.40;99.90
29255;DHT22;16277;48.890;2.306;2023-12-07T09:22:36;10.60;99.90
29255;DHT22;16277;48.890;2.306;2023-12-07T09:37:44;10.80;99.90
29255;DHT22;16277;48.890;2.306;2023-12-07T09:52:49;10.70;99.90
29255;DHT22;16277;48.890;2.306;2023-12-07T10:08:25;11.10;99.90
29255;DHT22;16277;48.890;2.306;2023-12-07T10:23:30;11.10;99.90
29255;DHT22;16277;48.890;2.306;2023-12-07T10:38:37;11.10;99.90
29255;DHT22;16277;48.890;2.306;2023-12-07T10:53:45;11.10;99.90
29255;DHT22;16277;48.890;2.306;2023-12-07T11:08:56;11.30;99.90
29255;DHT22;16277;48.890;2.306;2023-12-07T11:24:07;11.20;99.90
29255;DHT22;16277;48.890;2.306;2023-12-07T11:39:16;11.00;99.90
29255;DHT22;16277;48.890;2.306;2023-12-07T11:54:32;11.20;99.90
29255;DHT22;16277;48.890;2.306;2023-12-07T12:09:36;11.20;99.90
29255;DHT22;16277;48.890;2.306;2023-12-07T12:24:42;11.00;99.90
29255;DHT22;16277;48.890;2.306;2023-12-07T12:39:47;11.20;99.90
29255;DHT22;16277;48.890;2.306;2023-12-07T12:54:52;11.00;99.90
29255;DHT22;16277;48.890;2.306;2023-12-07T13:10:07;11.20;99.90
29255;DHT22;16277;48.890;2.306;2023-12-07T13:25:13;11.60;99.90
29255;DHT22;16277;48.890;2.306;2023-12-07T13:40:20;11.30;99.90
29255;DHT22;16277;48.890;2.306;2023-12-07T14:11:29;11.40;99.90
29255;DHT22;16277;48.890;2.306;2023-12-07T14:26:34;11.30;99.90
29255;DHT22;16277;48.890;2.306;2023-12-07T14:41:44;11.40;99.90
29255;DHT22;16277;48.890;2.306;2023-12-07T14:57:04;11.30;99.90
29255;DHT22;16277;48.890;2.306;2023-12-07T15:12:13;11.50;99.90
29255;DHT22;16277;48.890;2.306;2023-12-07T15:27:29;11.20;99.90
29255;DHT22;16277;48.890;2.306;2023-12-07T15:42:34;11.50;99.90
29255;DHT22;16277;48.890;2.306;2023-12-07T15:57:44;11.30;99.90
29255;DHT22;16277;48.890;2.306;2023-12-07T16:12:51;11.30;99.90
29255;DHT22;16277;48.890;2.306;2023-12-07T16:27:59;11.10;99.90
29255;DHT22;16277;48.890;2.306;2023-12-07T16:43:15;11.20;99.90
29255;DHT22;16277;48.890;2.306;2023-12-07T16:58:20;11.50;99.90
29255;DHT22;16277;48.890;2.306;2023-12-07T17:13:33;11.40;99.90
29255;DHT22;16277;48.890;2.306;2023-12-07T17:28:42;11.40;99.90
29255;DHT22;16277;48.890;2.306;2023-12-07T17:43:47;11.50;99.90
29255;DHT22;16277;48.890;2.306;2023-12-07T17:58:53;11.50;99.90
29255;DHT22;16277;48.890;2.306;2023-12-07T18:13:58;11.50;99.90
29255;DHT22;16277;48.890;2.306;2023-12-07T18:29:03;11.50;99.90
29255;DHT22;16277;48.890;2.306;2023-12-07T18:44:08;11.60;99.90
29255;DHT22;16277;48.890;2.306;2023-12-07T18:59:19;11.50;99.90
29255;DHT22;16277;48.890;2.306;2023-12-07T19:14:24;11.80;99.90
29255;DHT22;16277;48.890;2.306;2023-12-07T19:45:39;11.50;99.90
29255;DHT22;16277;48.890;2.306;2023-12-07T20:00:44;11.60;99.90
29255;DHT22;16277;48.890;2.306;2023-12-07T20:15:48;11.70;99.90
29255;DHT22;16277;48.890;2.306;2023-12-07T20:30:54;11.50;99.90
29255;DHT22;16277;48.890;2.306;2023-12-07T20:46:00;11.50;99.90
29255;DHT22;16277;48.890;2.306;2023-12-07T21:01:07;11.40;99.90
29255;DHT22;16277;48.890;2.306;2023-12-07T21:16:17;11.60;99.90
29255;DHT22;16277;48.890;2.306;2023-12-07T21:31:36;11.60;99.90
29255;DHT22;16277;48.890;2.306;2023-12-07T21:46:44;11.80;99.90
29255;DHT22;16277;48.890;2.306;2023-12-07T22:01:49;11.60;99.90
29255;DHT22;16277;48.890;2.306;2023-12-07T22:16:54;11.80;99.90
29255;DHT22;16277;48.890;2.306;2023-12-07T22:31:59;11.70;99.90
29255;DHT22;16277;48.890;2.306;2023-12-07T22:47:04;11.40;99.90
29255;DHT22;16277;48.890;2.306;2023-12-07T23:02:11;11.30;99.90
29255;DHT22;16277;48.890;2.306;2023-12-07T23:17:16;11.20;99.90
29255;DHT22;16277;48.890;2.306;2023-12-07T23:32:21;11.60;99.90
29255;DHT22;16277;48.890;2.306;2023-12-07T23:47:29;11.80;99.90
